Time;durP1;ratioP1;P1;durP2;ratioP2;P2;SDS_P1;SDS_P2;PMS_P1;PMS_P2;Temp;Humidity;BMP_temperature;BMP_pressure;BME280_temperature;BME280_humidity;BME280_pressure;Samples;Min_cycle;Max_cycle;Signal;HPM_P1;HPM_P2
2023/04/29 00:00:28;;;;;;;;;;;;;;;10.56;100.00;101529.91;5183153;28;19979;-73
2023/04/29 00:03:00;;;;;;;;;;;;;;;10.47;100.00;101520.06;5183663;28;19914;-74
2023/04/29 00:05:31;;;;;;;;;;;;;;;10.43;100.00;101533.91;5183550;28;19979;-73
2023/04/29 00:08:02;;;;;;;;;;;;;;;10.37;100.00;101532.66;5181457;28;19957;-74
2023/04/29 00:10:33;;;;;;;;;;;;;;;10.36;100.00;101528.31;5183173;28;19917;-73
2023/04/29 00:13:03;;;;;;;;;;;;;;;10.33;100.00;101529.44;5186267;28;20016;-73
2023/04/29 00:15:33;;;;;;;;;;;;;;;10.34;100.00;101531.16;5203383;28;19952;-73
2023/04/29 00:18:04;;;;;;;;;;;;;;;10.28;100.00;101529.03;5195117;28;19921;-73
2023/04/29 00:20:35;;;;;;;;;;;;;;;10.25;100.00;101539.22;5182354;28;19917;-73
2023/04/29 00:23:06;;;;;;;;;;;;;;;10.24;100.00;101533.03;5187252;28;19963;-73
2023/04/29 00:25:37;;;;;;;;;;;;;;;10.23;100.00;101533.13;5203539;28;19913;-73
2023/04/29 00:28:08;;;;;;;;;;;;;;;10.24;100.00;101537.53;5207245;28;19920;-73
2023/04/29 00:30:38;;;;;;;;;;;;;;;10.25;100.00;101544.59;5209311;28;19920;-73
2023/04/29 00:33:08;;;;;;;;;;;;;;;10.23;100.00;101543.84;5209762;28;19913;-74
2023/04/29 00:35:39;;;;;;;;;;;;;;;10.19;100.00;101546.00;5209788;28;19913;-73
2023/04/29 00:38:09;;;;;;;;;;;;;;;10.12;100.00;101540.34;5208773;28;19967;-73
2023/04/29 00:40:40;;;;;;;;;;;;;;;10.11;100.00;101545.88;5209288;28;20004;-74
2023/04/29 00:43:10;;;;;;;;;;;;;;;10.09;100.00;101547.84;5208890;28;19921;-73
2023/04/29 00:45:40;;;;;;;;;;;;;;;10.07;100.00;101548.00;5189373;28;19913;-73
2023/04/29 00:48:11;;;;;;;;;;;;;;;10.06;100.00;101543.63;5188053;28;19924;-73
2023/04/29 00:50:42;;;;;;;;;;;;;;;10.04;100.00;101548.31;5189268;28;19921;-73
2023/04/29 00:53:13;;;;;;;;;;;;;;;10.03;100.00;101545.75;5207793;28;20571;-73
2023/04/29 00:55:45;;;;;;;;;;;;;;;10.02;100.00;101552.94;5189294;28;19957;-73
2023/04/29 00:58:16;;;;;;;;;;;;;;;10.02;100.00;101552.09;5187767;28;19921;-73
2023/04/29 01:00:48;;;;;;;;;;;;;;;10.03;100.00;101559.16;5188725;28;19918;-73
2023/04/29 01:03:19;;;;;;;;;;;;;;;10.01;100.00;101562.00;5187779;28;19964;-73
2023/04/29 01:05:54;;;;;;;;;;;;;;;10.00;100.00;101560.31;5189490;28;19913;-73
2023/04/29 01:08:41;;;;;;;;;;;;;;;9.99;100.00;101561.31;5187074;28;19967;-73
2023/04/29 01:11:11;;;;;;;;;;;;;;;9.93;100.00;101563.69;5187524;28;19960;-73
2023/04/29 01:13:57;;;;;;;;;;;;;;;9.89;100.00;101571.19;5188834;28;20004;-73
2023/04/29 01:16:46;;;;;;;;;;;;;;;9.91;100.00;101574.56;5194142;28;20011;-73
2023/04/29 01:19:30;;;;;;;;;;;;;;;9.94;100.00;101581.47;5195327;28;19923;-73
2023/04/29 01:22:00;;;;;;;;;;;;;;;10.06;100.00;101575.78;5209038;28;19917;-73
2023/04/29 01:24:31;;;;;;;;;;;;;;;10.10;100.00;101576.38;5208850;28;20405;-73
2023/04/29 01:27:09;;;;;;;;;;;;;;;10.02;100.00;101573.56;5207690;28;19913;-73
2023/04/29 01:29:44;;;;;;;;;;;;;;;9.96;100.00;101592.91;5207099;28;19913;-73
2023/04/29 01:32:34;;;;;;;;;;;;;;;9.92;100.00;101586.13;5206010;28;20035;-73
2023/04/29 01:35:15;;;;;;;;;;;;;;;9.81;100.00;101587.13;5183180;28;19975;-73
2023/04/29 01:37:51;;;;;;;;;;;;;;;9.78;100.00;101584.72;5193038;28;19913;-73
2023/04/29 01:40:26;;;;;;;;;;;;;;;9.78;100.00;101582.91;5205207;28;19921;-73
2023/04/29 01:43:02;;;;;;;;;;;;;;;9.78;100.00;101588.25;5205382;28;19920;-73
2023/04/29 01:45:33;;;;;;;;;;;;;;;9.75;100.00;101595.75;5205522;28;20297;-73
2023/04/29 01:48:04;;;;;;;;;;;;;;;9.75;100.00;101599.28;5204051;28;19913;-73
2023/04/29 01:50:34;;;;;;;;;;;;;;;9.71;100.00;101603.22;5205065;28;20336;-73
2023/04/29 01:53:05;;;;;;;;;;;;;;;9.72;100.00;101604.06;5185431;28;19959;-73
2023/04/29 01:55:36;;;;;;;;;;;;;;;9.70;100.00;101598.84;5184804;28;19914;-73
2023/04/29 01:58:06;;;;;;;;;;;;;;;9.63;100.00;101604.91;5183639;28;19929;-73
2023/04/29 02:00:37;;;;;;;;;;;;;;;9.62;100.00;101595.19;5194373;28;19921;-73
2023/04/29 02:03:08;;;;;;;;;;;;;;;9.58;100.00;101603.50;5187938;28;20374;-73
2023/04/29 02:05:39;;;;;;;;;;;;;;;9.55;100.00;101605.63;5204982;28;19921;-73
2023/04/29 02:08:10;;;;;;;;;;;;;;;9.50;100.00;101606.06;5204422;28;19913;-73
2023/04/29 02:11:00;;;;;;;;;;;;;;;9.48;100.00;101610.69;5203564;28;20360;-73
2023/04/29 02:13:30;;;;;;;;;;;;;;;9.48;100.00;101608.00;5206425;28;19913;-73
2023/04/29 02:16:11;;;;;;;;;;;;;;;9.49;100.00;101608.88;5203571;28;20388;-73
2023/04/29 02:18:42;;;;;;;;;;;;;;;9.48;100.00;101616.03;5192498;28;19918;-73
2023/04/29 02:21:12;;;;;;;;;;;;;;;9.50;100.00;101616.78;5183781;28;19944;-73
2023/04/29 02:23:43;;;;;;;;;;;;;;;9.50;100.00;101613.25;5197848;28;20348;-73
2023/04/29 02:26:14;;;;;;;;;;;;;;;9.48;100.00;101624.06;5196881;28;19914;-73
2023/04/29 02:28:45;;;;;;;;;;;;;;;9.48;100.00;101623.25;5190503;28;20325;-73
2023/04/29 02:31:15;;;;;;;;;;;;;;;9.43;100.00;101620.97;5190933;28;20378;-72
2023/04/29 02:33:46;;;;;;;;;;;;;;;9.46;100.00;101622.53;5184202;28;19914;-73
2023/04/29 02:36:17;;;;;;;;;;;;;;;9.46;100.00;101626.06;5184123;28;20009;-72
2023/04/29 02:38:49;;;;;;;;;;;;;;;9.46;100.00;101633.25;5186748;28;19913;-73
2023/04/29 02:41:19;;;;;;;;;;;;;;;9.44;100.00;101637.88;5203608;28;19940;-73
2023/04/29 02:43:50;;;;;;;;;;;;;;;9.40;100.00;101639.19;5204441;28;19921;-73
2023/04/29 02:46:20;;;;;;;;;;;;;;;9.34;100.00;101640.59;5202676;28;20384;-72
2023/04/29 02:48:51;;;;;;;;;;;;;;;9.33;100.00;101644.22;5197649;28;19917;-73
2023/04/29 02:51:21;;;;;;;;;;;;;;;9.33;100.00;101645.06;5189680;28;19924;-73
2023/04/29 02:53:51;;;;;;;;;;;;;;;9.32;100.00;101645.22;5195688;28;19918;-73
2023/04/29 02:56:22;;;;;;;;;;;;;;;9.34;100.00;101648.63;5182587;28;20008;-72
2023/04/29 02:58:55;;;;;;;;;;;;;;;9.35;100.00;101647.63;5182094;28;19913;-73
2023/04/29 03:01:26;;;;;;;;;;;;;;;9.36;100.00;101652.00;5183208;28;19925;-73
2023/04/29 03:03:57;;;;;;;;;;;;;;;9.37;100.00;101652.84;5182132;28;19914;-73
2023/04/29 03:06:30;;;;;;;;;;;;;;;9.38;100.00;101650.00;5186421;28;19959;-73
2023/04/29 03:09:00;;;;;;;;;;;;;;;9.39;100.00;101651.72;5191144;28;20019;-73
2023/04/29 03:11:31;;;;;;;;;;;;;;;9.39;100.00;101650.84;5187944;28;19913;-73
2023/04/29 03:14:01;;;;;;;;;;;;;;;9.35;100.00;101658.34;5191002;28;19914;-73
2023/04/29 03:16:32;;;;;;;;;;;;;;;9.31;100.00;101649.72;5189714;28;20293;-73
2023/04/29 03:19:02;;;;;;;;;;;;;;;9.30;100.00;101655.22;5203532;28;19913;-72
2023/04/29 03:21:32;;;;;;;;;;;;;;;9.32;100.00;101661.28;5202847;28;20028;-73
2023/04/29 03:24:03;;;;;;;;;;;;;;;9.34;100.00;101664.69;5187545;28;20389;-73
2023/04/29 03:26:33;;;;;;;;;;;;;;;9.30;100.00;101665.94;5181098;28;19922;-73
2023/04/29 03:29:04;;;;;;;;;;;;;;;9.30;100.00;101666.78;5193982;28;19925;-73
2023/04/29 03:31:34;;;;;;;;;;;;;;;9.22;100.00;101657.75;5203697;28;19990;-73
2023/04/29 03:34:04;;;;;;;;;;;;;;;9.23;100.00;101659.44;5198578;28;19913;-73
2023/04/29 03:36:35;;;;;;;;;;;;;;;9.19;100.00;101658.88;5195385;28;20818;-73
2023/04/29 03:39:05;;;;;;;;;;;;;;;9.20;100.00;101663.25;5203244;28;20309;-73
2023/04/29 03:41:35;;;;;;;;;;;;;;;9.19;100.00;101668.75;5189459;28;19917;-73
2023/04/29 03:44:06;;;;;;;;;;;;;;;9.20;100.00;101667.75;5183949;28;20347;-73
2023/04/29 03:46:36;;;;;;;;;;;;;;;9.22;100.00;101677.31;5184144;28;19917;-73
2023/04/29 03:49:06;;;;;;;;;;;;;;;9.20;100.00;101668.59;5208127;28;19920;-73
2023/04/29 03:51:37;;;;;;;;;;;;;;;9.23;100.00;101675.50;5197513;28;20017;-73
2023/04/29 03:54:08;;;;;;;;;;;;;;;9.22;100.00;101680.00;5194077;28;19933;-74
2023/04/29 03:56:39;;;;;;;;;;;;;;;9.22;100.00;101671.97;5187092;28;19913;-73
2023/04/29 03:59:10;;;;;;;;;;;;;;;9.19;100.00;101674.09;5202396;28;19913;-73
2023/04/29 04:01:40;;;;;;;;;;;;;;;9.20;100.00;101678.47;5203400;28;19918;-73
2023/04/29 04:04:11;;;;;;;;;;;;;;;9.21;100.00;101682.81;5202214;28;19917;-73
2023/04/29 04:06:42;;;;;;;;;;;;;;;9.23;100.00;101681.69;5202101;28;20877;-73
2023/04/29 04:09:13;;;;;;;;;;;;;;;9.24;100.00;101690.59;5202399;28;19914;-72
2023/04/29 04:11:43;;;;;;;;;;;;;;;9.22;100.00;101685.34;5202588;28;19917;-73
2023/04/29 04:14:14;;;;;;;;;;;;;;;9.22;100.00;101696.06;5203242;28;20000;-73
2023/04/29 04:16:44;;;;;;;;;;;;;;;9.24;100.00;101691.44;5201755;28;19913;-73
2023/04/29 04:19:15;;;;;;;;;;;;;;;9.28;100.00;101700.03;5186753;28;19984;-73
2023/04/29 04:21:46;;;;;;;;;;;;;;;9.26;100.00;101704.69;5180574;28;20382;-73
2023/04/29 04:24:16;;;;;;;;;;;;;;;9.26;100.00;101707.34;5181113;28;20451;-73
2023/04/29 04:26:46;;;;;;;;;;;;;;;9.27;100.00;101709.88;5180289;28;20032;-73
2023/04/29 04:29:17;;;;;;;;;;;;;;;9.30;100.00;101706.09;5190000;28;20004;-73
2023/04/29 04:31:47;;;;;;;;;;;;;;;9.29;100.00;101717.81;5189054;28;20402;-73
2023/04/29 04:34:17;;;;;;;;;;;;;;;9.26;100.00;101716.22;5182474;28;20374;-73
2023/04/29 04:36:48;;;;;;;;;;;;;;;9.23;100.00;101723.69;5180549;28;19943;-73
2023/04/29 04:39:18;;;;;;;;;;;;;;;9.21;100.00;101726.50;5181887;28;19920;-73
2023/04/29 04:41:48;;;;;;;;;;;;;;;9.18;100.00;101736.63;5181557;28;20279;-73
2023/04/29 04:44:19;;;;;;;;;;;;;;;9.15;100.00;101743.13;5182525;28;19913;-73
2023/04/29 04:46:51;;;;;;;;;;;;;;;9.20;100.00;101748.06;5179871;28;19921;-73
2023/04/29 04:49:23;;;;;;;;;;;;;;;9.20;100.00;101748.06;5192222;28;19921;-73
2023/04/29 04:51:54;;;;;;;;;;;;;;;9.22;100.00;101756.81;5191992;28;19914;-73
2023/04/29 04:54:24;;;;;;;;;;;;;;;9.20;100.00;101762.31;5181285;28;19914;-73
2023/04/29 04:56:54;;;;;;;;;;;;;;;9.21;100.00;101758.63;5199832;28;20375;-73
2023/04/29 04:59:25;;;;;;;;;;;;;;;9.19;100.00;101768.66;5201877;28;19914;-73
2023/04/29 05:01:55;;;;;;;;;;;;;;;9.17;100.00;101761.72;5202329;28;19913;-73
2023/04/29 05:04:26;;;;;;;;;;;;;;;9.17;100.00;101773.25;5202213;28;19917;-73
2023/04/29 05:06:56;;;;;;;;;;;;;;;9.15;100.00;101771.72;5191853;28;19960;-73
2023/04/29 05:09:27;;;;;;;;;;;;;;;9.16;100.00;101774.25;5183372;28;19956;-73
2023/04/29 05:11:58;;;;;;;;;;;;;;;9.13;100.00;101768.31;5185182;28;19929;-73
2023/04/29 05:14:28;;;;;;;;;;;;;;;9.12;100.00;101782.69;5185555;28;19918;-73
2023/04/29 05:16:59;;;;;;;;;;;;;;;9.16;100.00;101778.75;5195791;28;19913;-73
2023/04/29 05:19:32;;;;;;;;;;;;;;;9.17;100.00;101780.44;5189071;28;19913;-73
2023/04/29 05:22:02;;;;;;;;;;;;;;;9.17;100.00;101783.97;5186961;28;19918;-73
2023/04/29 05:24:33;;;;;;;;;;;;;;;9.11;100.00;101787.19;5183390;28;20367;-73
2023/04/29 05:27:03;;;;;;;;;;;;;;;9.10;100.00;101803.41;5184779;28;19930;-73
2023/04/29 05:29:33;;;;;;;;;;;;;;;9.07;100.00;101802.66;5195362;28;19940;-73
2023/04/29 05:32:04;;;;;;;;;;;;;;;9.05;100.00;101793.94;5188694;28;19913;-73
2023/04/29 05:34:34;;;;;;;;;;;;;;;9.13;100.00;101800.44;5185378;28;19975;-73
2023/04/29 05:37:05;;;;;;;;;;;;;;;9.13;100.00;101808.47;5199605;28;20149;-73
2023/04/29 05:39:35;;;;;;;;;;;;;;;9.15;100.00;101806.53;5205592;28;19913;-73
2023/04/29 05:42:06;;;;;;;;;;;;;;;9.10;100.00;101808.75;5204995;28;20378;-73
2023/04/29 05:44:36;;;;;;;;;;;;;;;9.10;100.00;101809.59;5205846;28;19917;-73
2023/04/29 05:47:07;;;;;;;;;;;;;;;9.10;100.00;101806.91;5204105;28;20379;-73
2023/04/29 05:49:38;;;;;;;;;;;;;;;9.10;100.00;101806.91;5192198;28;19917;-73
2023/04/29 05:52:08;;;;;;;;;;;;;;;9.10;100.00;101806.91;5197142;28;19913;-73
2023/04/29 05:54:38;;;;;;;;;;;;;;;9.14;100.00;101812.88;5192201;28;19929;-73
2023/04/29 05:57:09;;;;;;;;;;;;;;;9.15;100.00;101825.25;5183611;28;20444;-73
2023/04/29 05:59:39;;;;;;;;;;;;;;;9.11;100.00;101824.69;5184685;28;20427;-73
2023/04/29 06:02:11;;;;;;;;;;;;;;;9.10;100.00;101822.97;5181776;28;20066;-73
2023/04/29 06:04:42;;;;;;;;;;;;;;;9.08;100.00;101839.16;5183740;28;19914;-73
2023/04/29 06:07:12;;;;;;;;;;;;;;;9.03;100.00;101841.38;5179370;28;19914;-73
2023/04/29 06:09:43;;;;;;;;;;;;;;;9.01;100.00;101848.72;5182444;28;19913;-73
2023/04/29 06:12:13;;;;;;;;;;;;;;;9.01;100.00;101847.88;5181506;28;19914;-73
2023/04/29 06:14:44;;;;;;;;;;;;;;;8.99;100.00;101849.84;5180290;28;19917;-73
2023/04/29 06:17:15;;;;;;;;;;;;;;;8.98;100.00;101846.28;5194297;28;19948;-73
2023/04/29 06:19:45;;;;;;;;;;;;;;;9.00;100.00;101856.88;5181234;28;20424;-73
2023/04/29 06:22:16;;;;;;;;;;;;;;;8.99;100.00;101858.72;5182781;28;19918;-73
2023/04/29 06:24:48;;;;;;;;;;;;;;;8.99;100.00;101872.09;5181553;28;19918;-72
2023/04/29 06:27:18;;;;;;;;;;;;;;;8.99;100.00;101869.41;5180509;28;19922;-73
2023/04/29 06:29:49;;;;;;;;;;;;;;;8.97;100.00;101866.00;5187724;28;19923;-73
2023/04/29 06:32:20;;;;;;;;;;;;;;;8.98;100.00;101872.19;5189057;28;19924;-73
2023/04/29 06:34:50;;;;;;;;;;;;;;;9.04;100.00;101879.72;5181401;28;19925;-73
2023/04/29 06:37:20;;;;;;;;;;;;;;;9.04;100.00;101888.59;5176178;28;19921;-73
2023/04/29 06:39:51;;;;;;;;;;;;;;;9.10;100.00;101889.91;5181365;28;19929;-73
2023/04/29 06:42:21;;;;;;;;;;;;;;;9.13;100.00;101891.47;5189670;28;20406;-73
2023/04/29 06:44:52;;;;;;;;;;;;;;;9.16;100.00;101886.69;5187774;28;20374;-73
2023/04/29 06:47:22;;;;;;;;;;;;;;;9.18;100.00;101884.72;5180594;28;20596;-73
2023/04/29 06:49:53;;;;;;;;;;;;;;;9.24;100.00;101886.91;5188877;28;19918;-73
2023/04/29 06:52:23;;;;;;;;;;;;;;;9.24;100.00;101889.56;5187229;28;19910;-73
2023/04/29 06:54:54;;;;;;;;;;;;;;;9.20;100.00;101888.13;5186125;28;19963;-73
2023/04/29 06:57:24;;;;;;;;;;;;;;;9.27;100.00;101894.66;5189672;28;20382;-73
2023/04/29 06:59:54;;;;;;;;;;;;;;;9.32;100.00;101897.78;5181961;28;19979;-74
2023/04/29 07:02:25;;;;;;;;;;;;;;;9.37;100.00;101894.69;5186223;28;19925;-72
2023/04/29 07:04:55;;;;;;;;;;;;;;;9.40;100.00;101898.97;5179794;28;19964;-72
2023/04/29 07:07:26;;;;;;;;;;;;;;;9.44;100.00;101901.25;5179906;28;20047;-73
2023/04/29 07:09:57;;;;;;;;;;;;;;;9.49;100.00;101907.06;5186824;28;19959;-73
2023/04/29 07:12:28;;;;;;;;;;;;;;;9.51;100.00;101906.91;5184134;28;20362;-73
2023/04/29 07:14:58;;;;;;;;;;;;;;;9.46;100.00;101906.47;5187550;28;20298;-73
2023/04/29 07:17:30;;;;;;;;;;;;;;;9.47;100.00;101910.81;5190757;28;20008;-73
2023/04/29 07:20:00;;;;;;;;;;;;;;;9.55;100.00;101916.38;5180904;28;19927;-73
2023/04/29 07:22:31;;;;;;;;;;;;;;;9.65;100.00;101919.94;5187544;28;19917;-72
2023/04/29 07:25:01;;;;;;;;;;;;;;;9.76;100.00;101919.00;5184596;28;19918;-73
2023/04/29 07:27:33;;;;;;;;;;;;;;;9.86;100.00;101922.56;5191800;28;19928;-73
2023/04/29 07:30:04;;;;;;;;;;;;;;;9.92;100.00;101922.03;5197361;28;19931;-73
2023/04/29 07:32:35;;;;;;;;;;;;;;;9.99;100.00;101931.22;5187590;28;19918;-73
2023/04/29 07:35:06;;;;;;;;;;;;;;;10.05;100.00;101925.31;5179544;28;19968;-74
2023/04/29 07:37:36;;;;;;;;;;;;;;;10.16;100.00;101928.88;5187573;28;20382;-73
2023/04/29 07:40:07;;;;;;;;;;;;;;;10.19;100.00;101924.09;5184095;28;19940;-73
2023/04/29 07:42:37;;;;;;;;;;;;;;;10.25;100.00;101934.31;5189087;28;19921;-73
2023/04/29 07:45:08;;;;;;;;;;;;;;;10.34;100.00;101938.84;5187811;28;19924;-73
2023/04/29 07:47:39;;;;;;;;;;;;;;;10.44;100.00;101937.97;5180057;28;19917;-73
2023/04/29 07:50:09;;;;;;;;;;;;;;;10.45;100.00;101937.03;5180332;28;20374;-73
2023/04/29 07:52:40;;;;;;;;;;;;;;;10.48;100.00;101934.03;5180226;28;20260;-73
2023/04/29 07:55:10;;;;;;;;;;;;;;;10.47;100.00;101946.63;5192799;28;19925;-73
2023/04/29 07:57:41;;;;;;;;;;;;;;;10.47;100.00;101943.94;5187572;28;19924;-73
2023/04/29 08:00:12;;;;;;;;;;;;;;;10.47;100.00;101945.78;5190617;28;19932;-73
2023/04/29 08:02:43;;;;;;;;;;;;;;;10.47;100.00;101943.09;5192439;28;19968;-73
2023/04/29 08:05:13;;;;;;;;;;;;;;;10.48;100.00;101947.47;5186137;28;19932;-73
2023/04/29 08:07:44;;;;;;;;;;;;;;;10.54;100.00;101949.56;5198311;28;19918;-73
2023/04/29 08:10:14;;;;;;;;;;;;;;;10.50;100.00;101945.50;5182430;28;19917;-73
2023/04/29 08:12:45;;;;;;;;;;;;;;;10.49;100.00;101957.19;5181860;28;19949;-73
2023/04/29 08:15:17;;;;;;;;;;;;;;;10.46;100.00;101952.97;5186441;28;19944;-73
2023/04/29 08:17:47;;;;;;;;;;;;;;;10.57;100.00;101955.53;5190372;28;19944;-73
2023/04/29 08:20:18;;;;;;;;;;;;;;;10.67;100.00;101957.38;5193572;28;19964;-73
2023/04/29 08:22:48;;;;;;;;;;;;;;;10.75;100.00;101952.16;5181142;28;19936;-73
2023/04/29 08:25:19;;;;;;;;;;;;;;;10.78;100.00;101957.22;5187924;28;20390;-73
2023/04/29 08:27:50;;;;;;;;;;;;;;;10.95;100.00;101950.34;5186756;28;20577;-73
2023/04/29 08:30:20;;;;;;;;;;;;;;;11.10;100.00;101954.28;5194607;28;20003;-73
2023/04/29 08:32:51;;;;;;;;;;;;;;;11.18;100.00;101956.25;5190164;28;19972;-74
2023/04/29 08:35:21;;;;;;;;;;;;;;;11.25;100.00;101966.28;5182252;28;19932;-74
2023/04/29 08:37:52;;;;;;;;;;;;;;;11.32;100.00;101961.16;5184923;28;20040;-73
2023/04/29 08:40:23;;;;;;;;;;;;;;;11.25;100.00;101963.59;5191315;28;19921;-73
2023/04/29 08:42:53;;;;;;;;;;;;;;;11.33;100.00;101962.84;5181260;28;19917;-73
2023/04/29 08:45:24;;;;;;;;;;;;;;;11.32;100.00;101962.00;5193774;28;20012;-73
2023/04/29 08:47:55;;;;;;;;;;;;;;;11.45;100.00;101969.78;5183544;28;19924;-73
2023/04/29 08:50:27;;;;;;;;;;;;;;;11.57;100.00;101970.44;5190593;28;19917;-74
2023/04/29 08:52:57;;;;;;;;;;;;;;;11.76;100.00;101964.19;5184673;28;19921;-74
2023/04/29 08:55:28;;;;;;;;;;;;;;;11.96;100.00;101968.53;5192415;28;19925;-74
2023/04/29 08:57:58;;;;;;;;;;;;;;;11.99;100.00;101968.19;5185807;28;19925;-74
2023/04/29 09:00:31;;;;;;;;;;;;;;;12.07;100.00;101971.00;5182931;28;20406;-74
2023/04/29 09:03:16;;;;;;;;;;;;;;;12.15;100.00;101972.97;5193895;28;19940;-74
2023/04/29 09:05:49;;;;;;;;;;;;;;;12.34;100.00;101963.91;5184771;28;20020;-74
2023/04/29 09:08:22;;;;;;;;;;;;;;;12.49;100.00;101956.19;5196359;28;20003;-73
2023/04/29 09:11:02;;;;;;;;;;;;;;;12.59;100.00;101962.34;5200665;28;19921;-74
2023/04/29 09:13:33;;;;;;;;;;;;;;;12.75;100.00;101980.50;5192399;28;19979;-73
2023/04/29 09:16:04;;;;;;;;;;;;;;;12.78;100.00;101977.53;5184499;28;19925;-74
2023/04/29 09:18:54;;;;;;;;;;;;;;;12.95;100.00;101982.06;5192307;28;20382;-73
2023/04/29 09:21:26;;;;;;;;;;;;;;;13.26;100.00;101982.53;5182599;28;20016;-74
2023/04/29 09:23:57;;;;;;;;;;;;;;;13.56;100.00;101988.50;5182739;28;19924;-73
2023/04/29 09:26:46;;;;;;;;;;;;;;;13.67;100.00;101982.84;5181061;28;20000;-74
2023/04/29 09:29:17;;;;;;;;;;;;;;;13.76;100.00;101989.13;5183491;28;20287;-74
2023/04/29 09:31:48;;;;;;;;;;;;;;;13.78;100.00;101995.19;5188319;28;19917;-74
2023/04/29 09:34:30;;;;;;;;;;;;;;;13.91;100.00;102003.72;5190208;28;19953;-74
2023/04/29 09:37:00;;;;;;;;;;;;;;;14.15;100.00;102000.28;5184518;28;19917;-74
2023/04/29 09:39:37;;;;;;;;;;;;;;;14.24;100.00;101993.91;5181809;28;19968;-74
2023/04/29 09:42:08;;;;;;;;;;;;;;;14.80;100.00;101999.69;5189326;28;19944;-74
2023/04/29 09:44:41;;;;;;;;;;;;;;;14.66;100.00;102001.16;5191184;28;19953;-74
2023/04/29 09:47:12;;;;;;;;;;;;;;;14.75;100.00;101998.31;5181243;28;19921;-74
2023/04/29 09:49:44;;;;;;;;;;;;;;;14.93;100.00;102005.47;5192138;28;19976;-74
2023/04/29 09:52:17;;;;;;;;;;;;;;;14.92;100.00;102001.06;5179628;28;20658;-73
2023/04/29 09:54:47;;;;;;;;;;;;;;;14.70;100.00;101997.13;5179488;28;20326;-74
2023/04/29 09:57:18;;;;;;;;;;;;;;;15.10;100.00;101998.19;5179888;28;19921;-74
2023/04/29 09:59:48;;;;;;;;;;;;;;;15.00;100.00;102006.47;5181198;28;20441;-74
2023/04/29 10:02:18;;;;;;;;;;;;;;;14.76;100.00;102008.13;5181488;28;19917;-74
2023/04/29 10:04:53;;;;;;;;;;;;;;;14.39;100.00;102013.03;5181541;28;19957;-74
2023/04/29 10:07:25;;;;;;;;;;;;;;;14.40;100.00;102012.03;5180994;28;19917;-73
2023/04/29 10:09:56;;;;;;;;;;;;;;;14.18;100.00;102014.31;5180786;28;19917;-74
2023/04/29 10:12:27;;;;;;;;;;;;;;;13.95;100.00;102013.16;5180889;28;19917;-74
2023/04/29 10:15:03;;;;;;;;;;;;;;;13.84;100.00;102013.44;5188826;28;19932;-74
2023/04/29 10:17:46;;;;;;;;;;;;;;;13.93;100.00;102024.13;5188773;28;19924;-74
2023/04/29 10:20:21;;;;;;;;;;;;;;;14.04;100.00;102023.00;5186477;28;20058;-74
2023/04/29 10:22:53;;;;;;;;;;;;;;;14.12;100.00;102020.34;5181971;28;20000;-74
2023/04/29 10:25:26;;;;;;;;;;;;;;;14.18;100.00;102018.84;5181725;28;19918;-74
2023/04/29 10:27:59;;;;;;;;;;;;;;;14.36;100.00;102022.31;5184660;28;19917;-74
2023/04/29 10:30:30;;;;;;;;;;;;;;;14.54;100.00;102019.53;5181827;28;20019;-74
2023/04/29 10:33:02;;;;;;;;;;;;;;;14.49;100.00;102025.44;5184142;28;19921;-74
2023/04/29 10:35:33;;;;;;;;;;;;;;;14.42;100.00;102023.53;5184862;28;19913;-74
2023/04/29 10:38:08;;;;;;;;;;;;;;;14.56;100.00;102016.66;5180029;28;20014;-74
2023/04/29 10:40:41;;;;;;;;;;;;;;;15.03;100.00;102012.41;5179347;28;19971;-74
2023/04/29 10:43:12;;;;;;;;;;;;;;;15.21;100.00;102019.50;5180567;28;19917;-74
2023/04/29 10:45:42;;;;;;;;;;;;;;;15.35;100.00;102010.72;5181883;28;20385;-74
2023/04/29 10:48:14;;;;;;;;;;;;;;;15.43;100.00;102015.28;5178911;28;19929;-74
2023/04/29 10:50:45;;;;;;;;;;;;;;;15.25;100.00;102010.03;5180907;28;20401;-74
2023/04/29 10:53:18;;;;;;;;;;;;;;;15.34;100.00;102009.03;5180740;28;20379;-74
2023/04/29 10:56:08;;;;;;;;;;;;;;;15.47;100.00;102006.66;5180307;28;20535;-74
2023/04/29 10:58:38;;;;;;;;;;;;;;;15.55;100.00;102012.03;5179698;28;19971;-74
2023/04/29 11:01:10;;;;;;;;;;;;;;;15.73;100.00;102013.75;5179904;28;20394;-74
2023/04/29 11:03:54;;;;;;;;;;;;;;;15.57;100.00;102019.16;5180352;28;19925;-74
2023/04/29 11:06:39;;;;;;;;;;;;;;;15.61;100.00;102015.09;5181661;28;19928;-74
2023/04/29 11:09:25;;;;;;;;;;;;;;;15.59;100.00;102017.97;5180012;28;19917;-74
2023/04/29 11:11:57;;;;;;;;;;;;;;;15.48;100.00;102021.03;5180453;28;20059;-74
2023/04/29 11:14:30;;;;;;;;;;;;;;;15.00;100.00;102019.97;5179985;28;19923;-74
2023/04/29 11:17:01;;;;;;;;;;;;;;;14.90;100.00;102019.28;5193596;28;19921;-74
2023/04/29 11:19:33;;;;;;;;;;;;;;;15.03;100.00;102022.34;5192129;28;19940;-74
2023/04/29 11:22:23;;;;;;;;;;;;;;;15.16;100.00;102021.84;5180209;28;20011;-74
2023/04/29 11:24:55;;;;;;;;;;;;;;;14.95;100.00;102017.78;5179964;28;19925;-74
2023/04/29 11:27:29;;;;;;;;;;;;;;;14.87;100.00;102022.34;5190478;28;19914;-74
2023/04/29 11:30:02;;;;;;;;;;;;;;;14.82;100.00;102020.13;5189207;28;20566;-73
2023/04/29 11:32:34;;;;;;;;;;;;;;;14.59;100.00;102030.69;5192385;28;20408;-73
2023/04/29 11:35:23;;;;;;;;;;;;;;;14.50;100.00;102039.78;5184550;28;19975;-73
2023/04/29 11:37:53;;;;;;;;;;;;;;;14.35;100.00;102038.66;5179336;28;19960;-73
2023/04/29 11:40:24;;;;;;;;;;;;;;;14.28;100.00;102038.47;5181512;28;19953;-74
2023/04/29 11:42:55;;;;;;;;;;;;;;;14.47;100.00;102037.38;5185976;28;22366;-73
2023/04/29 11:45:26;;;;;;;;;;;;;;;14.38;100.00;102041.06;5186233;28;19948;-74
2023/04/29 11:47:57;;;;;;;;;;;;;;;14.55;100.00;102033.88;5193600;28;19917;-74
2023/04/29 11:50:31;;;;;;;;;;;;;;;15.07;100.00;102021.03;5181170;28;19918;-74
2023/04/29 11:53:02;;;;;;;;;;;;;;;15.42;100.00;102022.56;5184466;28;19922;-74
2023/04/29 11:55:33;;;;;;;;;;;;;;;15.46;100.00;102025.75;5187566;28;19928;-74
2023/04/29 11:58:04;;;;;;;;;;;;;;;15.42;100.00;102027.13;5181183;28;20008;-74
2023/04/29 12:00:34;;;;;;;;;;;;;;;15.29;100.00;102023.03;5184732;28;19980;-73
2023/04/29 12:03:14;;;;;;;;;;;;;;;15.26;100.00;102020.69;5186945;28;20011;-74
2023/04/29 12:05:50;;;;;;;;;;;;;;;15.36;100.00;102014.25;5183666;28;20408;-74
2023/04/29 12:08:22;;;;;;;;;;;;;;;15.21;100.00;102020.34;5182499;28;20020;-74
2023/04/29 12:10:54;;;;;;;;;;;;;;;15.34;100.00;102019.00;5186427;28;20030;-74
2023/04/29 12:13:26;;;;;;;;;;;;;;;15.53;100.00;102014.09;5187195;28;20712;-74
2023/04/29 12:15:57;;;;;;;;;;;;;;;15.60;100.00;102018.81;5196375;28;19921;-74
2023/04/29 12:18:29;;;;;;;;;;;;;;;15.83;100.00;102024.41;5189797;28;20016;-74
2023/04/29 12:21:00;;;;;;;;;;;;;;;15.93;100.00;102022.34;5192716;28;20024;-74
2023/04/29 12:23:30;;;;;;;;;;;;;;;16.23;100.00;102018.88;5183951;28;20011;-74
2023/04/29 12:26:04;;;;;;;;;;;;;;;16.27;100.00;102016.66;5179992;28;20546;-74
2023/04/29 12:28:35;;;;;;;;;;;;;;;16.40;100.00;102016.09;5180981;28;19918;-74
2023/04/29 12:31:05;;;;;;;;;;;;;;;16.26;100.00;102021.19;5179049;28;19943;-74
2023/04/29 12:33:36;;;;;;;;;;;;;;;16.16;100.00;102027.84;5186844;28;19996;-74
2023/04/29 12:36:15;;;;;;;;;;;;;;;16.13;100.00;102031.75;5179379;28;20648;-74
2023/04/29 12:38:46;;;;;;;;;;;;;;;16.20;100.00;102031.91;5185282;28;19918;-74
2023/04/29 12:41:17;;;;;;;;;;;;;;;16.22;100.00;102027.16;5179850;28;19925;-74
2023/04/29 12:43:49;;;;;;;;;;;;;;;16.33;100.00;102028.66;5185261;28;19944;-74
2023/04/29 12:46:19;;;;;;;;;;;;;;;16.55;100.00;102027.84;5178388;28;19918;-74
2023/04/29 12:48:50;;;;;;;;;;;;;;;16.66;100.00;102026.63;5182551;28;19924;-74
2023/04/29 12:51:21;;;;;;;;;;;;;;;16.47;100.00;102023.34;5180120;28;20348;-74
2023/04/29 12:53:51;;;;;;;;;;;;;;;16.40;100.00;102016.09;5187612;28;19918;-74